Time;durP1;ratioP1;P1;durP2;ratioP2;P2;SDS_P1;SDS_P2;PMS_P1;PMS_P2;Temp;Humidity;BMP_temperature;BMP_pressure;BME280_temperature;BME280_humidity;BME280_pressure;Samples;Min_cycle;Max_cycle;Signal;HPM_P1;HPM_P2
2023/01/23 00:01:11;;;;;;;1999.90;999.90;;;;;;;0.51;100.00;98491.53;5112567;28;20020;-75
2023/01/23 00:03:37;;;;;;;1999.90;999.90;;;;;;;0.39;100.00;98494.13;5111621;28;20119;-76
2023/01/23 00:06:07;;;;;;;1999.90;999.90;;;;;;;0.45;100.00;98487.03;5113253;28;20181;-75
2023/01/23 00:08:34;;;;;;;1999.90;999.90;;;;;;;0.44;100.00;98482.69;5112255;28;20054;-76
2023/01/23 00:11:03;;;;;;;1999.90;999.90;;;;;;;0.52;100.00;98483.25;5110974;28;20023;-75
2023/01/23 00:13:29;;;;;;;1999.90;999.90;;;;;;;0.45;100.00;98482.47;5112194;28;20023;-76
2023/01/23 00:15:54;;;;;;;1999.90;999.90;;;;;;;0.61;100.00;98474.91;5112280;28;20027;-74
2023/01/23 00:18:19;;;;;;;1999.90;999.90;;;;;;;0.56;100.00;98451.38;5112059;28;20086;-75
2023/01/23 00:20:45;;;;;;;1999.90;999.90;;;;;;;0.53;100.00;98462.56;5112299;28;20038;-76
2023/01/23 00:23:11;;;;;;;1999.90;999.90;;;;;;;0.60;100.00;98457.94;5112182;28;20077;-76
2023/01/23 00:25:36;;;;;;;1999.90;999.90;;;;;;;0.61;100.00;98448.00;5111986;28;20027;-75
2023/01/23 00:28:02;;;;;;;1999.90;999.90;;;;;;;0.62;100.00;98445.09;5111786;28;20020;-76
2023/01/23 00:30:28;;;;;;;1999.90;999.90;;;;;;;0.72;100.00;98433.84;5110607;28;20477;-75
2023/01/23 00:32:53;;;;;;;1999.90;999.90;;;;;;;0.63;100.00;98419.81;5111981;28;20031;-76
2023/01/23 00:35:19;;;;;;;1999.90;999.90;;;;;;;0.54;100.00;98396.91;5111000;28;20023;-76
2023/01/23 00:37:44;;;;;;;1999.90;999.90;;;;;;;0.55;100.00;98395.88;5110475;28;20543;-75
2023/01/23 00:40:10;;;;;;;1999.90;999.90;;;;;;;0.55;100.00;98382.44;5111823;28;20511;-76
2023/01/23 00:42:35;;;;;;;1999.90;999.90;;;;;;;0.56;100.00;98376.03;5111498;28;20031;-76
2023/01/23 00:45:01;;;;;;;1999.90;999.90;;;;;;;0.60;100.00;98362.91;5111494;28;20053;-74
2023/01/23 00:47:26;;;;;;;1999.90;999.90;;;;;;;0.55;100.00;98363.59;5111827;28;20027;-75
2023/01/23 00:49:53;;;;;;;1999.90;999.90;;;;;;;0.66;100.00;98370.94;5111537;28;20074;-75
2023/01/23 00:52:19;;;;;;;1999.90;999.90;;;;;;;0.62;100.00;98375.13;5111588;28;20029;-75
2023/01/23 00:54:44;;;;;;;1999.90;999.90;;;;;;;0.60;100.00;98374.50;5108273;28;20020;-76
2023/01/23 00:57:09;;;;;;;1999.90;999.90;;;;;;;0.65;100.00;98374.69;5099996;28;20028;-76
2023/01/23 00:59:35;;;;;;;1999.90;999.90;;;;;;;0.61;100.00;98373.47;5093656;28;20354;-76
2023/01/23 01:02:00;;;;;;;1999.90;999.90;;;;;;;0.63;100.00;98379.44;5091039;28;20046;-76
2023/01/23 01:04:25;;;;;;;1999.90;999.90;;;;;;;0.64;100.00;98364.13;5091000;28;20031;-76
2023/01/23 01:06:51;;;;;;;1999.90;999.90;;;;;;;0.60;100.00;98350.28;5090427;28;20047;-76
2023/01/23 01:09:16;;;;;;;1999.90;999.90;;;;;;;0.63;100.00;98344.47;5090913;28;20058;-76
2023/01/23 01:11:41;;;;;;;1999.90;999.90;;;;;;;0.65;100.00;98349.63;5090979;28;20032;-76
2023/01/23 01:14:07;;;;;;;1999.90;999.90;;;;;;;0.68;100.00;98343.81;5090786;28;20056;-76
2023/01/23 01:16:32;;;;;;;1999.90;999.90;;;;;;;0.55;100.00;98334.00;5090625;28;20062;-76
2023/01/23 01:18:58;;;;;;;1999.90;999.90;;;;;;;0.43;100.00;98322.31;5090891;28;20047;-75
2023/01/23 01:21:23;;;;;;;1999.90;999.90;;;;;;;0.60;100.00;98334.16;5090882;28;20050;-75
2023/01/23 01:23:48;;;;;;;1999.90;999.90;;;;;;;0.68;100.00;98324.97;5090711;28;20070;-75
2023/01/23 01:26:14;;;;;;;1999.90;999.90;;;;;;;0.68;100.00;98336.56;5089299;28;20381;-76
2023/01/23 01:28:41;;;;;;;1999.90;999.90;;;;;;;0.67;100.00;98318.75;5090625;28;20063;-75
2023/01/23 01:31:12;;;;;;;1999.90;999.90;;;;;;;0.71;100.00;98328.03;5090597;28;20438;-75
2023/01/23 01:33:39;;;;;;;1999.90;999.90;;;;;;;0.72;100.00;98308.13;5090886;28;20477;-75
2023/01/23 01:36:12;;;;;;;1999.90;999.90;;;;;;;0.64;100.00;98319.22;5091125;28;20016;-76
2023/01/23 01:38:38;;;;;;;1999.90;999.90;;;;;;;0.79;100.00;98326.91;5089230;28;20020;-76
2023/01/23 01:41:04;;;;;;;1999.90;999.90;;;;;;;0.70;100.00;98323.69;5090820;28;20376;-75
2023/01/23 01:43:30;;;;;;;1999.90;999.90;;;;;;;0.74;100.00;98318.69;5089953;28;20036;-77
2023/01/23 01:46:09;;;;;;;1999.90;999.90;;;;;;;0.93;100.00;98328.41;5091935;28;20426;-77
2023/01/23 01:49:06;;;;;;;1999.90;999.90;;;;;;;0.86;100.00;98339.25;5093302;28;20039;-83
2023/01/23 01:51:49;;;;;;;;;;;;;;;0.83;100.00;98347.78;5092093;28;20058;-73
2023/01/23 01:54:35;;;;;;;1999.90;999.90;;;;;;;0.80;100.00;98336.63;5090748;28;19966;-76
2023/01/23 01:57:07;;;;;;;1999.90;999.90;;;;;;;0.71;100.00;98336.13;5089280;28;20146;-75
2023/01/23 01:59:45;;;;;;;1999.90;999.90;;;;;;;0.81;100.00;98339.13;5090483;28;20028;-76
2023/01/23 02:02:15;;;;;;;1999.90;999.90;;;;;;;0.89;100.00;98341.50;5089100;28;20055;-76
2023/01/23 02:04:46;;;;;;;1999.90;999.90;;;;;;;0.83;100.00;98344.28;5089183;28;20112;-76
2023/01/23 02:07:21;;;;;;;1999.90;999.90;;;;;;;0.91;100.00;98342.09;5090555;28;20086;-75
2023/01/23 02:09:48;;;;;;;1999.90;999.90;;;;;;;0.89;100.00;98333.44;5090270;28;20063;-76
2023/01/23 02:12:13;;;;;;;1999.90;999.90;;;;;;;0.84;100.00;98335.16;5090359;28;20390;-76
2023/01/23 02:14:39;;;;;;;1999.90;999.90;;;;;;;0.79;100.00;98322.34;5090331;28;20026;-76
2023/01/23 02:17:04;;;;;;;1999.90;999.90;;;;;;;0.80;100.00;98324.00;5090305;28;20086;-76
2023/01/23 02:19:54;;;;;;;1999.90;999.90;;;;;;;0.79;100.00;98316.97;5094166;28;20481;-76
2023/01/23 02:22:51;;;;;;;1999.90;999.90;;;;;;;0.74;100.00;98324.91;5094185;28;20028;-77
2023/01/23 02:25:27;;;;;;;1999.90;999.90;;;;;;;0.81;100.00;98316.75;5094121;28;20081;-76
2023/01/23 02:27:52;;;;;;;1999.90;999.90;;;;;;;0.78;100.00;98319.91;5093942;28;20032;-77
2023/01/23 02:30:19;;;;;;;1999.90;999.90;;;;;;;0.80;100.00;98313.25;5093987;28;20035;-75
2023/01/23 02:32:45;;;;;;;1999.90;999.90;;;;;;;0.71;100.00;98303.81;5093841;28;20024;-76
2023/01/23 02:35:16;;;;;;;1999.90;999.90;;;;;;;0.70;100.00;98301.34;5093740;28;20518;-76
2023/01/23 02:37:44;;;;;;;1999.90;999.90;;;;;;;0.69;100.00;98310.47;5092547;28;20024;-75
2023/01/23 02:40:10;;;;;;;1999.90;999.90;;;;;;;0.73;100.00;98307.09;5093878;28;20028;-76
2023/01/23 02:42:39;;;;;;;1999.90;999.90;;;;;;;0.62;100.00;98301.66;5092534;28;20024;-76
2023/01/23 02:45:05;;;;;;;1999.90;999.90;;;;;;;0.67;100.00;98316.06;5092468;28;20378;-75
2023/01/23 02:47:32;;;;;;;1999.90;999.90;;;;;;;0.62;100.00;98307.84;5093833;28;20114;-77
2023/01/23 02:49:57;;;;;;;1999.90;999.90;;;;;;;0.73;100.00;98304.41;5093837;28;20035;-76
2023/01/23 02:52:23;;;;;;;1999.90;999.90;;;;;;;0.73;100.00;98307.09;5093544;28;20114;-76
2023/01/23 02:54:48;;;;;;;1999.90;999.90;;;;;;;0.70;100.00;98304.84;5093617;28;20429;-75
2023/01/23 02:57:13;;;;;;;1999.90;999.90;;;;;;;0.69;100.00;98295.13;5091878;28;20024;-76
2023/01/23 03:02:23;;;;;;;1999.90;999.90;;;;;;;0.59;100.00;98289.47;5093280;28;20031;-76
2023/01/23 03:04:48;;;;;;;1999.90;999.90;;;;;;;0.68;100.00;98298.06;5092088;28;20461;-76
2023/01/23 03:07:14;;;;;;;1999.90;999.90;;;;;;;0.77;100.00;98292.16;5093702;28;20059;-77
2023/01/23 03:09:40;;;;;;;1999.90;999.90;;;;;;;0.76;100.00;98287.81;5092048;28;20519;-77
2023/01/23 03:12:06;;;;;;;1999.90;999.90;;;;;;;0.63;100.00;98290.63;5093438;28;20051;-76
2023/01/23 03:14:33;;;;;;;1999.90;999.90;;;;;;;0.76;100.00;98287.81;5100458;28;20480;-74
2023/01/23 03:16:59;;;;;;;1999.90;999.90;;;;;;;0.73;100.00;98280.19;5113348;28;20024;-75
2023/01/23 03:19:25;;;;;;;1999.90;999.90;;;;;;;0.67;100.00;98289.16;5113494;28;20456;-74
2023/01/23 03:21:51;;;;;;;1999.90;999.90;;;;;;;0.79;100.00;98273.06;5113652;28;20032;-74
2023/01/23 03:24:17;;;;;;;1999.90;999.90;;;;;;;0.75;100.00;98280.78;5113709;28;20076;-75
2023/01/23 03:26:45;;;;;;;1999.90;999.90;;;;;;;0.78;100.00;98276.84;5113273;28;20058;-75
2023/01/23 03:32:04;;;;;;;1999.90;999.90;;;;;;;0.80;100.00;98263.97;5113417;28;20034;-76
2023/01/23 03:34:30;;;;;;;1999.90;999.90;;;;;;;0.83;100.00;98263.50;5113170;28;20027;-75
2023/01/23 03:36:55;;;;;;;1999.90;999.90;;;;;;;0.75;100.00;98267.31;5112206;28;20028;-75
2023/01/23 03:42:05;;;;;;;1999.90;999.90;;;;;;;0.67;100.00;98264.09;5113405;28;20110;-75
2023/01/23 03:44:30;;;;;;;1999.90;999.90;;;;;;;0.76;100.00;98260.88;5111950;28;20122;-74
2023/01/23 03:46:55;;;;;;;1999.90;999.90;;;;;;;0.69;100.00;98253.97;5112835;28;20019;-77
2023/01/23 03:49:21;;;;;;;1999.90;999.90;;;;;;;0.78;100.00;98256.13;5110948;28;20032;-75
2023/01/23 03:51:46;;;;;;;1999.90;999.90;;;;;;;0.76;100.00;98252.81;5112964;28;20049;-76
2023/01/23 03:54:13;;;;;;;1999.90;999.90;;;;;;;0.78;100.00;98256.13;5112873;28;20064;-74
2023/01/23 03:56:38;;;;;;;1999.90;999.90;;;;;;;0.63;100.00;98233.34;5116194;28;20115;-76
2023/01/23 03:59:04;;;;;;;1999.90;999.90;;;;;;;0.59;100.00;98237.50;5117004;28;20039;-76
2023/01/23 04:01:29;;;;;;;1999.90;999.90;;;;;;;0.69;100.00;98240.50;5112591;27;20486;-75
2023/01/23 04:03:54;;;;;;;1999.90;999.90;;;;;;;0.71;100.00;98239.22;5112543;28;20028;-74
2023/01/23 04:06:20;;;;;;;1999.90;999.90;;;;;;;0.78;100.00;98245.34;5112510;28;20052;-75
2023/01/23 04:08:45;;;;;;;1999.90;999.90;;;;;;;0.80;100.00;98242.44;5112127;28;20468;-75
2023/01/23 04:11:11;;;;;;;1999.90;999.90;;;;;;;0.79;100.00;98236.22;5112409;28;20035;-75
2023/01/23 04:13:37;;;;;;;1999.90;999.90;;;;;;;0.86;100.00;98236.13;5111108;28;20030;-74
2023/01/23 04:16:03;;;;;;;1999.90;999.90;;;;;;;0.90;100.00;98234.66;5111136;28;20024;-76
2023/01/23 04:18:29;;;;;;;1999.90;999.90;;;;;;;0.83;100.00;98237.41;5112174;28;20089;-74
2023/01/23 04:20:55;;;;;;;1999.90;999.90;;;;;;;0.86;100.00;98233.44;5112038;28;20486;-75
2023/01/23 04:23:21;;;;;;;1999.90;999.90;;;;;;;0.84;100.00;98230.16;5112272;28;20031;-74
2023/01/23 04:25:47;;;;;;;1999.90;999.90;;;;;;;0.85;100.00;98224.53;5112040;28;20396;-75
2023/01/23 04:28:13;;;;;;;1999.90;999.90;;;;;;;0.83;100.00;98215.88;5111890;28;20031;-75
2023/01/23 04:30:38;;;;;;;1999.90;999.90;;;;;;;0.70;100.00;98224.13;5112093;28;20027;-77
2023/01/23 04:33:04;;;;;;;1999.90;999.90;;;;;;;0.70;100.00;98215.22;5112057;28;20023;-77
2023/01/23 04:35:29;;;;;;;1999.90;999.90;;;;;;;0.65;100.00;98207.84;5111911;28;20038;-74
2023/01/23 04:37:54;;;;;;;1999.90;999.90;;;;;;;0.67;100.00;98218.34;5112442;27;20057;-77
2023/01/23 04:40:20;;;;;;;1999.90;999.90;;;;;;;0.62;100.00;98202.91;5111936;28;20107;-74
2023/01/23 04:42:45;;;;;;;1999.90;999.90;;;;;;;0.65;100.00;98213.22;5111837;28;20036;-75
2023/01/23 04:45:11;;;;;;;1999.90;999.90;;;;;;;0.65;100.00;98207.00;5111632;27;20027;-75
2023/01/23 04:47:36;;;;;;;1999.90;999.90;;;;;;;0.62;100.00;98197.53;5111751;28;20476;-77
2023/01/23 04:50:03;;;;;;;1999.90;999.90;;;;;;;0.64;100.00;98214.25;5110276;28;20031;-75
2023/01/23 04:52:29;;;;;;;1999.90;999.90;;;;;;;0.59;100.00;98200.66;5111658;28;20031;-75
2023/01/23 04:54:54;;;;;;;1999.90;999.90;;;;;;;0.63;100.00;98199.16;5111450;27;20031;-75
2023/01/23 04:57:20;;;;;;;1999.90;999.90;;;;;;;0.54;100.00;98205.88;5111394;28;20384;-75
2023/01/23 04:59:45;;;;;;;1999.90;999.90;;;;;;;0.48;100.00;98204.91;5110254;28;20036;-75
2023/01/23 05:02:10;;;;;;;1999.90;999.90;;;;;;;0.44;100.00;98201.03;5103636;28;20022;-74
2023/01/23 05:04:36;;;;;;;1999.90;999.90;;;;;;;0.42;100.00;98199.63;5111428;28;20063;-75
2023/01/23 05:07:01;;;;;;;1999.90;999.90;;;;;;;0.39;100.00;98202.75;5111789;28;20526;-75
2023/01/23 05:09:26;;;;;;;1999.90;999.90;;;;;;;0.41;100.00;98212.25;5112149;28;20028;-75
2023/01/23 05:11:51;;;;;;;1999.90;999.90;;;;;;;0.59;100.00;98211.44;5111470;28;20472;-75
2023/01/23 05:14:18;;;;;;;1999.90;999.90;;;;;;;0.59;100.00;98208.75;5110950;28;20044;-74
2023/01/23 05:16:43;;;;;;;1999.90;999.90;;;;;;;0.63;100.00;98223.38;5110994;28;20073;-74
2023/01/23 05:19:08;;;;;;;1999.90;999.90;;;;;;;0.78;100.00;98236.47;5109730;28;20545;-75
2023/01/23 05:21:34;;;;;;;1999.90;999.90;;;;;;;0.77;100.00;98224.88;5109828;28;20484;-77
2023/01/23 05:23:59;;;;;;;1999.90;999.90;;;;;;;0.64;100.00;98227.72;5109775;28;20026;-76
2023/01/23 05:26:25;;;;;;;1999.90;999.90;;;;;;;0.74;100.00;98227.19;5094832;28;20145;-76
2023/01/23 05:28:50;;;;;;;1999.90;999.90;;;;;;;0.88;100.00;98228.66;5090819;28;20028;-74
2023/01/23 05:31:15;;;;;;;1999.90;999.90;;;;;;;0.79;100.00;98227.31;5091192;28;20036;-75
2023/01/23 05:33:41;;;;;;;1999.90;999.90;;;;;;;0.85;100.00;98221.84;5090946;28;20020;-76
2023/01/23 05:36:06;;;;;;;1999.90;999.90;;;;;;;0.93;100.00;98226.94;5095441;28;20118;-74
2023/01/23 05:38:32;;;;;;;1999.90;999.90;;;;;;;0.98;100.00;98237.00;5110181;28;20039;-74
2023/01/23 05:40:57;;;;;;;1999.90;999.90;;;;;;;1.06;100.00;98232.16;5106115;28;20556;-76
2023/01/23 05:43:22;;;;;;;1999.90;999.90;;;;;;;1.10;100.00;98243.25;5110678;28;20469;-76
2023/01/23 05:45:48;;;;;;;1999.90;999.90;;;;;;;1.13;100.00;98236.63;5108606;28;20031;-76
2023/01/23 05:48:13;;;;;;;1999.90;999.90;;;;;;;1.22;100.00;98246.03;5099863;28;20054;-75
2023/01/23 05:50:39;;;;;;;1999.90;999.90;;;;;;;1.29;100.00;98241.34;5106089;28;20468;-75
2023/01/23 05:53:04;;;;;;;1999.90;999.90;;;;;;;1.26;100.00;98239.94;5112629;28;20392;-76
2023/01/23 05:55:30;;;;;;;1999.90;999.90;;;;;;;1.34;100.00;98250.41;5114061;28;20034;-76
2023/01/23 05:57:55;;;;;;;1999.90;999.90;;;;;;;1.41;100.00;98240.34;5117101;28;20062;-77
2023/01/23 06:00:21;;;;;;;1999.90;999.90;;;;;;;1.49;100.00;98247.28;5102299;28;20521;-76
2023/01/23 06:02:46;;;;;;;1999.90;999.90;;;;;;;1.51;100.00;98245.16;5094911;28;20414;-76
2023/01/23 06:05:12;;;;;;;1999.90;999.90;;;;;;;1.60;100.00;98241.09;5097344;28;20024;-76
2023/01/23 06:07:38;;;;;;;1999.90;999.90;;;;;;;1.71;100.00;98259.19;5104314;28;20104;-76
2023/01/23 06:10:05;;;;;;;1999.90;999.90;;;;;;;1.73;100.00;98248.97;5094389;28;20528;-76
2023/01/23 06:12:30;;;;;;;1999.90;999.90;;;;;;;1.77;100.00;98255.56;5094171;28;20112;-76
2023/01/23 06:14:56;;;;;;;1999.90;999.90;;;;;;;1.77;100.00;98260.94;5092997;28;20591;-76
2023/01/23 06:17:21;;;;;;;1999.90;999.90;;;;;;;1.77;100.00;98255.56;5094175;28;20028;-75
2023/01/23 06:19:47;;;;;;;1999.90;999.90;;;;;;;1.88;100.00;98260.13;5096014;28;20035;-76
2023/01/23 06:22:12;;;;;;;1999.90;999.90;;;;;;;1.93;100.00;98267.53;5094775;28;20153;-76
2023/01/23 06:24:38;;;;;;;1999.90;999.90;;;;;;;1.94;100.00;98264.59;5092455;28;20110;-76
2023/01/23 06:27:07;;;;;;;1999.90;999.90;;;;;;;1.93;100.00;98254.88;5091019;28;20058;-76
2023/01/23 06:29:33;;;;;;;1999.90;999.90;;;;;;;1.92;100.00;98264.00;5091239;28;20030;-75
2023/01/23 06:31:59;;;;;;;1999.90;999.90;;;;;;;1.96;100.00;98259.81;5092695;28;20512;-75
2023/01/23 06:34:24;;;;;;;1999.90;999.90;;;;;;;1.97;100.00;98260.63;5092488;28;21510;-75
2023/01/23 06:36:49;;;;;;;1999.90;999.90;;;;;;;1.97;100.00;98253.34;5092529;28;20031;-76
2023/01/23 06:39:15;;;;;;;1999.90;999.90;;;;;;;1.96;100.00;98267.06;5093534;28;20023;-75
2023/01/23 06:41:41;;;;;;;1999.90;999.90;;;;;;;2.01;100.00;98265.31;5093781;28;20062;-75
2023/01/23 06:44:06;;;;;;;1999.90;999.90;;;;;;;1.93;100.00;98252.19;5093500;28;20032;-76
2023/01/23 06:46:32;;;;;;;1999.90;999.90;;;;;;;2.07;100.00;98266.25;5093669;28;20051;-75
2023/01/23 06:48:58;;;;;;;1999.90;999.90;;;;;;;2.02;100.00;98269.66;5093548;28;20020;-76
2023/01/23 06:51:23;;;;;;;1999.90;999.90;;;;;;;2.03;100.00;98274.00;5096304;28;20024;-75
2023/01/23 06:53:48;;;;;;;1999.90;999.90;;;;;;;2.05;100.00;98271.91;5114082;28;20097;-76
2023/01/23 06:56:14;;;;;;;1999.90;999.90;;;;;;;2.08;100.00;98278.69;5113744;28;20016;-75
2023/01/23 06:58:42;;;;;;;1999.90;999.90;;;;;;;2.09;100.00;98281.16;5110542;28;20024;-74
2023/01/23 07:01:14;;;;;;;1999.90;999.90;;;;;;;2.08;100.00;98276.81;5103085;28;20020;-75
2023/01/23 07:03:43;;;;;;;1999.90;999.90;;;;;;;2.18;100.00;98281.63;5108996;27;20155;-76
2023/01/23 07:06:10;;;;;;;1999.90;999.90;;;;;;;2.20;100.00;98281.38;5104283;28;20044;-75
2023/01/23 07:08:35;;;;;;;1999.90;999.90;;;;;;;2.25;100.00;98289.63;5099524;28;20047;-74
2023/01/23 07:11:01;;;;;;;1999.90;999.90;;;;;;;2.25;100.00;98276.97;5102442;28;20024;-76
2023/01/23 07:13:27;;;;;;;1999.90;999.90;;;;;;;2.20;100.00;98292.19;5100379;28;20046;-75
2023/01/23 07:15:53;;;;;;;1999.90;999.90;;;;;;;2.23;100.00;98299.81;5100383;28;20026;-75
2023/01/23 07:18:18;;;;;;;1999.90;999.90;;;;;;;2.27;100.00;98307.22;5106223;28;20054;-78
2023/01/23 07:20:47;;;;;;;1999.90;999.90;;;;;;;2.25;100.00;98297.72;5101862;28;20027;-76
2023/01/23 07:23:12;;;;;;;1999.90;999.90;;;;;;;2.28;100.00;98308.03;5102437;28;20024;-76
2023/01/23 07:25:38;;;;;;;1999.90;999.90;;;;;;;2.35;100.00;98297.97;5100450;28;20004;-75
2023/01/23 07:28:04;;;;;;;1999.90;999.90;;;;;;;2.42;100.00;98304.88;5101835;28;20057;-74
2023/01/23 07:30:30;;;;;;;1999.90;999.90;;;;;;;2.40;100.00;98308.88;5097118;28;20028;-75
2023/01/23 07:32:56;;;;;;;1999.90;999.90;;;;;;;2.42;100.00;98295.94;5094556;28;20590;-76
2023/01/23 07:35:22;;;;;;;1999.90;999.90;;;;;;;2.43;100.00;98314.63;5090965;28;20020;-77
2023/01/23 07:37:47;;;;;;;1999.90;999.90;;;;;;;2.41;100.00;98321.31;5092780;28;20031;-75
2023/01/23 07:40:13;;;;;;;1999.90;999.90;;;;;;;2.41;100.00;98315.91;5091026;28;20385;-77
2023/01/23 07:42:40;;;;;;;1999.90;999.90;;;;;;;2.45;100.00;98317.91;5090693;28;20101;-75
2023/01/23 07:45:07;;;;;;;1999.90;999.90;;;;;;;2.41;100.00;98319.41;5091206;28;20031;-76
2023/01/23 07:47:32;;;;;;;1999.90;999.90;;;;;;;2.43;100.00;98336.22;5091916;28;20108;-76
2023/01/23 07:49:58;;;;;;;1999.90;999.90;;;;;;;2.38;100.00;98319.09;5091831;28;20122;-76
2023/01/23 07:52:23;;;;;;;1999.90;999.90;;;;;;;2.42;100.00;98333.72;5092174;28;20511;-76
2023/01/23 07:54:48;;;;;;;1999.90;999.90;;;;;;;2.41;100.00;98337.50;5109857;28;20073;-76
2023/01/23 07:57:14;;;;;;;1999.90;999.90;;;;;;;2.42;100.00;98344.53;5112045;28;20172;-75
2023/01/23 07:59:39;;;;;;;1999.90;999.90;;;;;;;2.41;100.00;98329.41;5112418;28;20055;-75
2023/01/23 08:02:04;;;;;;;1999.90;999.90;;;;;;;2.36;100.00;98332.81;5112071;28;20034;-75
2023/01/23 08:04:30;;;;;;;1999.90;999.90;;;;;;;2.44;100.00;98337.03;5111862;28;20024;-76
2023/01/23 08:06:55;;;;;;;1999.90;999.90;;;;;;;2.46;100.00;98343.03;5112315;28;20063;-76
2023/01/23 08:09:20;;;;;;;1999.90;999.90;;;;;;;2.45;100.00;98352.16;5110655;28;20437;-76
2023/01/23 08:11:46;;;;;;;1999.90;999.90;;;;;;;2.42;100.00;98349.94;5110758;28;20059;-76
2023/01/23 08:14:12;;;;;;;1999.90;999.90;;;;;;;2.28;100.00;98340.44;5113852;28;20024;-78
2023/01/23 08:16:37;;;;;;;1999.90;999.90;;;;;;;2.39;100.00;98339.59;5117444;28;20357;-77
2023/01/23 08:19:06;;;;;;;1999.90;999.90;;;;;;;2.49;100.00;98356.03;5114849;28;20085;-75
2023/01/23 08:21:31;;;;;;;1999.90;999.90;;;;;;;2.48;100.00;98349.81;5112435;28;20018;-77
2023/01/23 08:23:56;;;;;;;1999.90;999.90;;;;;;;2.51;100.00;98354.75;5112052;28;20114;-76
2023/01/23 08:26:22;;;;;;;1999.90;999.90;;;;;;;2.55;100.00;98363.22;5110485;28;20486;-74
2023/01/23 08:28:47;;;;;;;1999.90;999.90;;;;;;;2.59;100.00;98359.81;5110687;28;20084;-77
2023/01/23 08:31:13;;;;;;;1999.90;999.90;;;;;;;2.55;100.00;98355.09;5110830;28;20028;-75
2023/01/23 08:33:39;;;;;;;1999.90;999.90;;;;;;;2.55;100.00;98365.91;5111484;28;20020;-76
2023/01/23 08:36:08;;;;;;;1999.90;999.90;;;;;;;2.47;100.00;98360.88;5110268;28;20115;-74
2023/01/23 08:38:33;;;;;;;1999.90;999.90;;;;;;;2.47;100.00;98366.25;5110639;28;20038;-76
2023/01/23 08:41:01;;;;;;;1999.90;999.90;;;;;;;2.42;100.00;98350.75;5111466;28;20016;-76
2023/01/23 08:43:26;;;;;;;1999.90;999.90;;;;;;;2.44;100.00;98366.72;5111585;28;20022;-76
2023/01/23 08:45:54;;;;;;;1999.90;999.90;;;;;;;2.46;100.00;98372.72;5111874;28;20016;-77
2023/01/23 08:48:20;;;;;;;1999.90;999.90;;;;;;;2.59;100.00;98367.09;5111318;28;20016;-75
2023/01/23 08:50:46;;;;;;;1999.90;999.90;;;;;;;2.53;100.00;98373.44;5111423;28;20054;-76
2023/01/23 08:53:11;;;;;;;1999.90;999.90;;;;;;;2.57;100.00;98382.69;5107054;28;20036;-76
2023/01/23 08:55:38;;;;;;;1999.90;999.90;;;;;;;2.50;100.00;98376.59;5090897;28;20086;-77
2023/01/23 08:58:08;;;;;;;1999.90;999.90;;;;;;;2.45;100.00;98365.66;5090735;28;20020;-75
2023/01/23 09:00:34;;;;;;;1999.90;999.90;;;;;;;2.46;100.00;98383.50;5090702;28;20369;-75
2023/01/23 09:03:00;;;;;;;1999.90;999.90;;;;;;;2.44;100.00;98364.03;5090638;28;20039;-78
2023/01/23 09:05:27;;;;;;;1999.90;999.90;;;;;;;2.47;100.00;98379.75;5090694;28;20058;-75
2023/01/23 09:07:53;;;;;;;1999.90;999.90;;;;;;;2.47;100.00;98374.38;5089769;28;20069;-75
2023/01/23 09:10:18;;;;;;;1999.90;999.90;;;;;;;2.55;100.00;98374.00;5090455;28;20024;-76
2023/01/23 09:12:43;;;;;;;1999.90;999.90;;;;;;;2.53;100.00;98371.56;5090631;28;20031;-75
2023/01/23 09:15:09;;;;;;;1999.90;999.90;;;;;;;2.51;100.00;98375.53;5090310;28;20485;-76
2023/01/23 09:17:35;;;;;;;1999.90;999.90;;;;;;;2.50;100.00;98382.00;5089098;28;20061;-76
2023/01/23 09:20:00;;;;;;;1999.90;999.90;;;;;;;2.51;100.00;98380.91;5090495;28;20119;-76
2023/01/23 09:22:26;;;;;;;1999.90;999.90;;;;;;;2.50;100.00;98369.31;5090533;28;20104;-76
2023/01/23 09:24:51;;;;;;;1999.90;999.90;;;;;;;2.59;100.00;98380.59;5090269;28;20036;-74
2023/01/23 09:27:17;;;;;;;1999.90;999.90;;;;;;;2.58;100.00;98368.97;5089523;28;20024;-76
2023/01/23 09:29:43;;;;;;;1999.90;999.90;;;;;;;2.60;100.00;98379.53;5088898;28;20024;-75
2023/01/23 09:32:08;;;;;;;1999.90;999.90;;;;;;;2.60;100.00;98369.53;5090130;28;20472;-76
2023/01/23 09:34:33;;;;;;;1999.90;999.90;;;;;;;2.54;100.00;98358.84;5090312;28;20016;-74
2023/01/23 09:36:59;;;;;;;1999.90;999.90;;;;;;;2.56;100.00;98375.66;5096005;28;20042;-76
2023/01/23 09:39:24;;;;;;;1999.90;999.90;;;;;;;2.60;100.00;98368.75;5109786;28;20088;-75
2023/01/23 09:41:49;;;;;;;1999.90;999.90;;;;;;;2.65;100.00;98376.94;5110590;28;20806;-75
2023/01/23 09:44:29;;;;;;;1999.90;999.90;;;;;;;2.62;100.00;98366.63;5110568;28;20023;-77
2023/01/23 09:47:01;;;;;;;1999.90;999.90;;;;;;;2.61;100.00;98370.38;5110434;28;20055;-75
2023/01/23 09:49:43;;;;;;;1999.90;999.90;;;;;;;2.54;100.00;98364.25;5110564;28;20039;-77
2023/01/23 09:52:16;;;;;;;1999.90;999.90;;;;;;;2.61;100.00;98370.38;5110503;28;20027;-77
2023/01/23 09:54:48;;;;;;;1999.90;999.90;;;;;;;2.64;100.00;98369.91;5110377;28;20492;-78
2023/01/23 09:57:24;;;;;;;1999.90;999.90;;;;;;;2.65;100.00;98376.94;5110411;28;20376;-76
2023/01/23 10:00:10;;;;;;;1999.90;999.90;;;;;;;2.69;100.00;98373.53;5110569;28;20707;-76
2023/01/23 10:02:36;;;;;;;1999.90;999.90;;;;;;;2.57;100.00;98353.81;5108965;28;20490;-75
2023/01/23 10:05:01;;;;;;;1999.90;999.90;;;;;;;2.62;100.00;98370.16;5110469;28;20028;-76
2023/01/23 10:07:37;;;;;;;1999.90;999.90;;;;;;;2.72;100.00;98373.06;5109003;28;20402;-76
2023/01/23 10:10:34;;;;;;;1999.90;999.90;;;;;;;2.70;100.00;98372.50;5109145;28;20050;-76
2023/01/23 10:13:18;;;;;;;1999.90;999.90;;;;;;;2.72;100.00;98371.44;5110338;28;20034;-75
2023/01/23 10:15:55;;;;;;;1999.90;999.90;;;;;;;2.78;100.00;98373.19;5108837;28;20515;-77
2023/01/23 10:18:21;;;;;;;1999.90;999.90;;;;;;;2.88;100.00;98374.25;5108859;28;20046;-76
2023/01/23 10:21:01;;;;;;;1999.90;999.90;;;;;;;2.81;100.00;98380.84;5110819;28;20049;-76
2023/01/23 10:23:45;;;;;;;1999.90;999.90;;;;;;;2.87;100.00;98385.28;5112364;28;20073;-75
2023/01/23 10:26:21;;;;;;;1999.90;999.90;;;;;;;2.90;100.00;98385.66;5111985;28;20031;-76
2023/01/23 10:28:47;;;;;;;1999.90;999.90;;;;;;;2.88;100.00;98393.16;5108782;28;20515;-76
2023/01/23 10:31:27;;;;;;;1999.90;999.90;;;;;;;2.92;100.00;98382.69;5108853;28;20118;-76
2023/01/23 10:34:04;;;;;;;1999.90;999.90;;;;;;;2.93;100.00;98389.75;5108659;28;20076;-75
2023/01/23 10:36:37;;;;;;;1999.90;999.90;;;;;;;2.95;100.00;98391.16;5109911;28;20077;-78
2023/01/23 10:39:12;;;;;;;1999.90;999.90;;;;;;;2.86;100.00;98389.03;5110360;28;20426;-76
2023/01/23 10:41:38;;;;;;;1999.90;999.90;;;;;;;2.89;100.00;98391.28;5113703;28;20035;-75
2023/01/23 10:44:15;;;;;;;1999.90;999.90;;;;;;;2.93;100.00;98395.97;5113934;28;20074;-77
2023/01/23 10:46:47;;;;;;;1999.90;999.90;;;;;;;2.92;100.00;98388.94;5113925;28;20051;-78
2023/01/23 10:49:37;;;;;;;1999.90;999.90;;;;;;;2.92;100.00;98399.72;5113436;28;20118;-79
2023/01/23 10:52:22;;;;;;;1999.90;999.90;;;;;;;2.88;100.00;98386.94;5114348;28;20436;-75
2023/01/23 10:54:48;;;;;;;1999.90;999.90;;;;;;;2.88;100.00;98398.53;5094540;28;20065;-77
2023/01/23 10:57:13;;;;;;;1999.90;999.90;;;;;;;2.87;100.00;98396.91;5091345;28;20059;-75
2023/01/23 10:59:54;;;;;;;1999.90;999.90;;;;;;;2.91;100.00;98398.09;5091838;28;20499;-75
2023/01/23 11:02:27;;;;;;;1999.90;999.90;;;;;;;2.86;100.00;98399.84;5092976;28;20038;-76
2023/01/23 11:04:52;;;;;;;1999.90;999.90;;;;;;;2.90;100.00;98396.44;5091719;28;20560;-76